sensor_id;sensor_type;location;lat;lon;timestamp;P1;durP1;ratioP1;P2;durP2;ratioP2
8312;SDS011;4194;43.408;24.626;2023-01-10T00:02:01;39.20;;;21.93;;
8312;SDS011;4194;43.408;24.626;2023-01-10T00:04:28;37.87;;;21.13;;
8312;SDS011;4194;43.408;24.626;2023-01-10T00:06:54;36.70;;;22.50;;
8312;SDS011;4194;43.408;24.626;2023-01-10T00:09:21;39.13;;;22.33;;
8312;SDS011;4194;43.408;24.626;2023-01-10T00:11:46;43.70;;;22.43;;
8312;SDS011;4194;43.408;24.626;2023-01-10T00:14:31;41.97;;;22.97;;
8312;SDS011;4194;43.408;24.626;2023-01-10T00:17:03;51.57;;;24.77;;
8312;SDS011;4194;43.408;24.626;2023-01-10T00:19:29;41.57;;;25.13;;
8312;SDS011;4194;43.408;24.626;2023-01-10T00:21:57;44.97;;;25.57;;
8312;SDS011;4194;43.408;24.626;2023-01-10T00:24:26;44.57;;;26.53;;
8312;SDS011;4194;43.408;24.626;2023-01-10T00:26:52;56.63;;;26.63;;
8312;SDS011;4194;43.408;24.626;2023-01-10T00:29:25;49.37;;;24.43;;
8312;SDS011;4194;43.408;24.626;2023-01-10T00:31:59;45.40;;;23.83;;
8312;SDS011;4194;43.408;24.626;2023-01-10T00:34:25;45.13;;;24.63;;
8312;SDS011;4194;43.408;24.626;2023-01-10T00:36:51;46.30;;;24.83;;
8312;SDS011;4194;43.408;24.626;2023-01-10T00:39:17;46.20;;;25.23;;
8312;SDS011;4194;43.408;24.626;2023-01-10T00:41:45;45.03;;;25.40;;
8312;SDS011;4194;43.408;24.626;2023-01-10T00:44:29;43.50;;;25.80;;
8312;SDS011;4194;43.408;24.626;2023-01-10T00:46:55;46.00;;;25.60;;
8312;SDS011;4194;43.408;24.626;2023-01-10T00:49:21;44.50;;;24.17;;
8312;SDS011;4194;43.408;24.626;2023-01-10T00:51:47;49.13;;;24.67;;
8312;SDS011;4194;43.408;24.626;2023-01-10T00:54:12;44.70;;;25.43;;
8312;SDS011;4194;43.408;24.626;2023-01-10T00:56:39;43.47;;;24.27;;
8312;SDS011;4194;43.408;24.626;2023-01-10T00:59:05;46.73;;;25.73;;
8312;SDS011;4194;43.408;24.626;2023-01-10T01:01:31;41.97;;;24.80;;
8312;SDS011;4194;43.408;24.626;2023-01-10T01:03:57;40.80;;;23.47;;
8312;SDS011;4194;43.408;24.626;2023-01-10T01:06:26;43.47;;;24.57;;
8312;SDS011;4194;43.408;24.626;2023-01-10T01:08:52;47.70;;;27.83;;
8312;SDS011;4194;43.408;24.626;2023-01-10T01:11:18;41.80;;;23.90;;
8312;SDS011;4194;43.408;24.626;2023-01-10T01:13:43;40.87;;;23.43;;
8312;SDS011;4194;43.408;24.626;2023-01-10T01:16:09;42.30;;;23.13;;
8312;SDS011;4194;43.408;24.626;2023-01-10T01:18:35;39.50;;;23.23;;
8312;SDS011;4194;43.408;24.626;2023-01-10T01:21:01;41.87;;;23.40;;
8312;SDS011;4194;43.408;24.626;2023-01-10T01:23:28;38.23;;;22.67;;
8312;SDS011;4194;43.408;24.626;2023-01-10T01:25:54;40.23;;;23.20;;
8312;SDS011;4194;43.408;24.626;2023-01-10T01:28:21;42.33;;;23.70;;
8312;SDS011;4194;43.408;24.626;2023-01-10T01:30:47;41.37;;;24.67;;
8312;SDS011;4194;43.408;24.626;2023-01-10T01:33:13;39.07;;;22.80;;
8312;SDS011;4194;43.408;24.626;2023-01-10T01:35:43;39.93;;;22.90;;
8312;SDS011;4194;43.408;24.626;2023-01-10T01:38:10;41.97;;;23.57;;
8312;SDS011;4194;43.408;24.626;2023-01-10T01:40:36;36.10;;;22.03;;
8312;SDS011;4194;43.408;24.626;2023-01-10T01:43:03;35.97;;;20.73;;
8312;SDS011;4194;43.408;24.626;2023-01-10T01:45:32;34.43;;;20.47;;
8312;SDS011;4194;43.408;24.626;2023-01-10T01:53:01;33.30;;;20.00;;
8312;SDS011;4194;43.408;24.626;2023-01-10T01:55:31;30.40;;;19.87;;
8312;SDS011;4194;43.408;24.626;2023-01-10T01:58:00;32.53;;;20.20;;
8312;SDS011;4194;43.408;24.626;2023-01-10T02:00:31;31.00;;;18.70;;
8312;SDS011;4194;43.408;24.626;2023-01-10T02:02:56;33.27;;;19.23;;
8312;SDS011;4194;43.408;24.626;2023-01-10T02:05:24;31.03;;;19.20;;
8312;SDS011;4194;43.408;24.626;2023-01-10T02:07:51;31.87;;;19.40;;
8312;SDS011;4194;43.408;24.626;2023-01-10T02:10:21;32.93;;;20.63;;
8312;SDS011;4194;43.408;24.626;2023-01-10T02:12:52;32.90;;;21.20;;
8312;SDS011;4194;43.408;24.626;2023-01-10T02:15:20;31.17;;;21.33;;
8312;SDS011;4194;43.408;24.626;2023-01-10T02:17:46;32.30;;;20.47;;
8312;SDS011;4194;43.408;24.626;2023-01-10T02:20:13;35.27;;;19.60;;
8312;SDS011;4194;43.408;24.626;2023-01-10T02:33:29;29.73;;;18.70;;
8312;SDS011;4194;43.408;24.626;2023-01-10T02:36:07;31.20;;;19.13;;
8312;SDS011;4194;43.408;24.626;2023-01-10T02:38:57;28.57;;;18.47;;
8312;SDS011;4194;43.408;24.626;2023-01-10T02:44:23;32.03;;;19.80;;
8312;SDS011;4194;43.408;24.626;2023-01-10T02:46:56;28.60;;;17.83;;
8312;SDS011;4194;43.408;24.626;2023-01-10T02:49:22;33.07;;;19.87;;
8312;SDS011;4194;43.408;24.626;2023-01-10T02:51:47;33.03;;;19.47;;
8312;SDS011;4194;43.408;24.626;2023-01-10T03:02:49;33.07;;;22.93;;
8312;SDS011;4194;43.408;24.626;2023-01-10T03:16:06;30.47;;;18.93;;
8312;SDS011;4194;43.408;24.626;2023-01-10T03:18:53;31.30;;;19.40;;
8312;SDS011;4194;43.408;24.626;2023-01-10T03:21:24;34.50;;;19.87;;
8312;SDS011;4194;43.408;24.626;2023-01-10T03:23:52;33.67;;;18.63;;
8312;SDS011;4194;43.408;24.626;2023-01-10T03:26:29;30.30;;;18.67;;
8312;SDS011;4194;43.408;24.626;2023-01-10T03:29:05;30.90;;;18.83;;
8312;SDS011;4194;43.408;24.626;2023-01-10T03:31:39;31.30;;;17.87;;
8312;SDS011;4194;43.408;24.626;2023-01-10T03:34:13;27.90;;;17.57;;
8312;SDS011;4194;43.408;24.626;2023-01-10T03:36:47;30.77;;;19.13;;
8312;SDS011;4194;43.408;24.626;2023-01-10T03:39:43;28.13;;;17.73;;
8312;SDS011;4194;43.408;24.626;2023-01-10T03:42:15;28.83;;;18.03;;
8312;SDS011;4194;43.408;24.626;2023-01-10T03:50:07;28.50;;;18.63;;
8312;SDS011;4194;43.408;24.626;2023-01-10T03:52:41;30.10;;;18.77;;
8312;SDS011;4194;43.408;24.626;2023-01-10T03:55:09;30.13;;;18.13;;
8312;SDS011;4194;43.408;24.626;2023-01-10T03:57:36;30.80;;;18.97;;
8312;SDS011;4194;43.408;24.626;2023-01-10T04:00:05;31.33;;;18.37;;
8312;SDS011;4194;43.408;24.626;2023-01-10T04:02:32;28.83;;;18.03;;
8312;SDS011;4194;43.408;24.626;2023-01-10T04:04:57;32.30;;;21.43;;
8312;SDS011;4194;43.408;24.626;2023-01-10T04:07:23;31.20;;;20.23;;
8312;SDS011;4194;43.408;24.626;2023-01-10T04:09:49;30.30;;;19.83;;
8312;SDS011;4194;43.408;24.626;2023-01-10T04:12:15;31.53;;;19.67;;
8312;SDS011;4194;43.408;24.626;2023-01-10T04:14:41;35.47;;;21.67;;
8312;SDS011;4194;43.408;24.626;2023-01-10T04:17:10;32.47;;;20.30;;
8312;SDS011;4194;43.408;24.626;2023-01-10T04:19:36;33.33;;;20.53;;
8312;SDS011;4194;43.408;24.626;2023-01-10T04:22:02;34.47;;;20.60;;
8312;SDS011;4194;43.408;24.626;2023-01-10T04:24:29;35.20;;;20.33;;
8312;SDS011;4194;43.408;24.626;2023-01-10T04:26:55;33.43;;;19.70;;
8312;SDS011;4194;43.408;24.626;2023-01-10T04:29:21;34.60;;;20.23;;
8312;SDS011;4194;43.408;24.626;2023-01-10T04:31:47;32.70;;;19.83;;
8312;SDS011;4194;43.408;24.626;2023-01-10T04:34:14;31.33;;;19.17;;
8312;SDS011;4194;43.408;24.626;2023-01-10T04:36:40;30.80;;;18.47;;
8312;SDS011;4194;43.408;24.626;2023-01-10T04:39:06;33.40;;;20.23;;
8312;SDS011;4194;43.408;24.626;2023-01-10T04:41:32;31.57;;;19.33;;
8312;SDS011;4194;43.408;24.626;2023-01-10T04:43:58;29.27;;;18.17;;
8312;SDS011;4194;43.408;24.626;2023-01-10T04:46:24;31.23;;;19.90;;
8312;SDS011;4194;43.408;24.626;2023-01-10T04:48:49;33.23;;;19.30;;
8312;SDS011;4194;43.408;24.626;2023-01-10T04:51:16;32.07;;;18.93;;
8312;SDS011;4194;43.408;24.626;2023-01-10T04:53:41;29.17;;;18.20;;
8312;SDS011;4194;43.408;24.626;2023-01-10T04:56:08;31.33;;;18.33;;
8312;SDS011;4194;43.408;24.626;2023-01-10T04:58:36;27.87;;;19.00;;
8312;SDS011;4194;43.408;24.626;2023-01-10T05:01:21;31.77;;;18.10;;
8312;SDS011;4194;43.408;24.626;2023-01-10T05:03:49;30.53;;;18.37;;
8312;SDS011;4194;43.408;24.626;2023-01-10T05:06:15;31.80;;;18.97;;
8312;SDS011;4194;43.408;24.626;2023-01-10T05:08:41;32.00;;;19.70;;
8312;SDS011;4194;43.408;24.626;2023-01-10T05:11:08;31.60;;;18.53;;
8312;SDS011;4194;43.408;24.626;2023-01-10T05:13:33;30.80;;;18.83;;
8312;SDS011;4194;43.408;24.626;2023-01-10T05:15:59;26.93;;;17.83;;
8312;SDS011;4194;43.408;24.626;2023-01-10T05:18:25;27.87;;;17.03;;
8312;SDS011;4194;43.408;24.626;2023-01-10T05:20:51;28.30;;;17.77;;
8312;SDS011;4194;43.408;24.626;2023-01-10T05:23:23;29.90;;;18.77;;
8312;SDS011;4194;43.408;24.626;2023-01-10T05:25:49;30.57;;;18.77;;
8312;SDS011;4194;43.408;24.626;2023-01-10T05:28:14;27.90;;;17.47;;
8312;SDS011;4194;43.408;24.626;2023-01-10T05:30:40;29.20;;;18.43;;
8312;SDS011;4194;43.408;24.626;2023-01-10T05:33:06;31.13;;;18.70;;
8312;SDS011;4194;43.408;24.626;2023-01-10T05:35:32;29.73;;;17.97;;
8312;SDS011;4194;43.408;24.626;2023-01-10T05:37:58;30.53;;;19.23;;
8312;SDS011;4194;43.408;24.626;2023-01-10T05:40:23;29.17;;;18.50;;
8312;SDS011;4194;43.408;24.626;2023-01-10T05:42:49;42.60;;;21.10;;
8312;SDS011;4194;43.408;24.626;2023-01-10T05:45:15;112.33;;;38.67;;
8312;SDS011;4194;43.408;24.626;2023-01-10T05:47:41;77.73;;;31.40;;
8312;SDS011;4194;43.408;24.626;2023-01-10T05:50:06;35.70;;;20.73;;
8312;SDS011;4194;43.408;24.626;2023-01-10T05:52:33;36.77;;;19.87;;
8312;SDS011;4194;43.408;24.626;2023-01-10T05:54:59;32.77;;;19.43;;
8312;SDS011;4194;43.408;24.626;2023-01-10T05:57:24;35.63;;;21.83;;
8312;SDS011;4194;43.408;24.626;2023-01-10T05:59:50;34.43;;;19.80;;
8312;SDS011;4194;43.408;24.626;2023-01-10T06:02:22;35.60;;;22.07;;
8312;SDS011;4194;43.408;24.626;2023-01-10T06:04:50;39.33;;;23.13;;
8312;SDS011;4194;43.408;24.626;2023-01-10T06:07:16;39.60;;;23.77;;
8312;SDS011;4194;43.408;24.626;2023-01-10T06:09:42;43.00;;;26.47;;
8312;SDS011;4194;43.408;24.626;2023-01-10T06:12:08;45.90;;;25.87;;
8312;SDS011;4194;43.408;24.626;2023-01-10T06:14:33;43.77;;;26.40;;
8312;SDS011;4194;43.408;24.626;2023-01-10T06:16:59;39.43;;;25.00;;
8312;SDS011;4194;43.408;24.626;2023-01-10T06:19:25;39.07;;;23.07;;
8312;SDS011;4194;43.408;24.626;2023-01-10T06:21:50;33.80;;;22.07;;
8312;SDS011;4194;43.408;24.626;2023-01-10T06:24:16;36.93;;;21.47;;
8312;SDS011;4194;43.408;24.626;2023-01-10T06:26:42;42.40;;;22.70;;
8312;SDS011;4194;43.408;24.626;2023-01-10T06:29:07;37.37;;;22.03;;
8312;SDS011;4194;43.408;24.626;2023-01-10T06:31:33;36.70;;;22.07;;
8312;SDS011;4194;43.408;24.626;2023-01-10T06:33:59;34.80;;;20.63;;
8312;SDS011;4194;43.408;24.626;2023-01-10T06:36:24;32.23;;;18.87;;
8312;SDS011;4194;43.408;24.626;2023-01-10T06:38:50;36.87;;;19.40;;
8312;SDS011;4194;43.408;24.626;2023-01-10T06:41:16;33.53;;;19.63;;
8312;SDS011;4194;43.408;24.626;2023-01-10T06:43:43;32.30;;;19.43;;
8312;SDS011;4194;43.408;24.626;2023-01-10T06:46:15;33.47;;;19.63;;
8312;SDS011;4194;43.408;24.626;2023-01-10T06:48:42;31.20;;;18.67;;
8312;SDS011;4194;43.408;24.626;2023-01-10T06:51:09;31.90;;;20.17;;
8312;SDS011;4194;43.408;24.626;2023-01-10T06:53:35;35.67;;;20.93;;
8312;SDS011;4194;43.408;24.626;2023-01-10T06:56:01;35.17;;;19.53;;
8312;SDS011;4194;43.408;24.626;2023-01-10T06:58:29;38.23;;;20.90;;
8312;SDS011;4194;43.408;24.626;2023-01-10T07:00:55;34.70;;;20.27;;
8312;SDS011;4194;43.408;24.626;2023-01-10T07:03:21;36.80;;;20.80;;
8312;SDS011;4194;43.408;24.626;2023-01-10T07:05:47;39.33;;;21.67;;
8312;SDS011;4194;43.408;24.626;2023-01-10T07:08:13;36.30;;;20.47;;
8312;SDS011;4194;43.408;24.626;2023-01-10T07:10:39;34.97;;;19.87;;
8312;SDS011;4194;43.408;24.626;2023-01-10T07:13:05;35.73;;;20.37;;
8312;SDS011;4194;43.408;24.626;2023-01-10T07:15:31;37.37;;;21.83;;
8312;SDS011;4194;43.408;24.626;2023-01-10T07:17:57;37.43;;;20.57;;
8312;SDS011;4194;43.408;24.626;2023-01-10T07:20:23;35.40;;;20.40;;
8312;SDS011;4194;43.408;24.626;2023-01-10T07:22:58;30.83;;;19.47;;
8312;SDS011;4194;43.408;24.626;2023-01-10T07:25:25;36.53;;;21.70;;
8312;SDS011;4194;43.408;24.626;2023-01-10T07:27:52;40.60;;;21.50;;
8312;SDS011;4194;43.408;24.626;2023-01-10T07:30:19;35.80;;;21.23;;
8312;SDS011;4194;43.408;24.626;2023-01-10T07:32:51;36.93;;;21.80;;
8312;SDS011;4194;43.408;24.626;2023-01-10T07:35:21;38.63;;;21.33;;
8312;SDS011;4194;43.408;24.626;2023-01-10T07:37:47;38.60;;;21.63;;
8312;SDS011;4194;43.408;24.626;2023-01-10T07:40:13;38.97;;;22.90;;
8312;SDS011;4194;43.408;24.626;2023-01-10T07:42:39;39.60;;;22.67;;
8312;SDS011;4194;43.408;24.626;2023-01-10T07:45:05;34.73;;;21.73;;
8312;SDS011;4194;43.408;24.626;2023-01-10T07:47:32;39.60;;;22.40;;
8312;SDS011;4194;43.408;24.626;2023-01-10T07:49:58;36.23;;;20.37;;
8312;SDS011;4194;43.408;24.626;2023-01-10T07:52:24;37.20;;;21.47;;
8312;SDS011;4194;43.408;24.626;2023-01-10T07:54:50;38.30;;;20.00;;
8312;SDS011;4194;43.408;24.626;2023-01-10T07:57:16;35.23;;;21.53;;
8312;SDS011;4194;43.408;24.626;2023-01-10T07:59:41;37.13;;;21.73;;
8312;SDS011;4194;43.408;24.626;2023-01-10T08:02:08;39.67;;;23.53;;
8312;SDS011;4194;43.408;24.626;2023-01-10T08:04:34;37.20;;;22.23;;
8312;SDS011;4194;43.408;24.626;2023-01-10T08:07:02;39.40;;;22.43;;
8312;SDS011;4194;43.408;24.626;2023-01-10T08:09:28;38.30;;;21.33;;
8312;SDS011;4194;43.408;24.626;2023-01-10T08:11:53;32.63;;;19.20;;
8312;SDS011;4194;43.408;24.626;2023-01-10T08:14:19;33.17;;;18.87;;
8312;SDS011;4194;43.408;24.626;2023-01-10T08:16:45;29.77;;;19.10;;
8312;SDS011;4194;43.408;24.626;2023-01-10T08:19:10;34.03;;;18.77;;
8312;SDS011;4194;43.408;24.626;2023-01-10T08:21:40;36.20;;;19.97;;
8312;SDS011;4194;43.408;24.626;2023-01-10T08:24:06;36.07;;;20.00;;
8312;SDS011;4194;43.408;24.626;2023-01-10T08:26:32;33.33;;;18.67;;
8312;SDS011;4194;43.408;24.626;2023-01-10T08:28:58;37.50;;;20.00;;
8312;SDS011;4194;43.408;24.626;2023-01-10T08:31:24;28.60;;;17.70;;
8312;SDS011;4194;43.408;24.626;2023-01-10T08:33:50;32.70;;;19.00;;
8312;SDS011;4194;43.408;24.626;2023-01-10T08:36:16;33.17;;;20.20;;
8312;SDS011;4194;43.408;24.626;2023-01-10T08:38:43;32.00;;;19.10;;
8312;SDS011;4194;43.408;24.626;2023-01-10T08:41:09;30.83;;;18.43;;
8312;SDS011;4194;43.408;24.626;2023-01-10T08:43:36;36.37;;;21.40;;
8312;SDS011;4194;43.408;24.626;2023-01-10T08:46:01;38.60;;;21.30;;
8312;SDS011;4194;43.408;24.626;2023-01-10T08:48:27;39.93;;;21.40;;
8312;SDS011;4194;43.408;24.626;2023-01-10T08:50:53;33.60;;;20.13;;
8312;SDS011;4194;43.408;24.626;2023-01-10T08:53:18;38.73;;;20.60;;
8312;SDS011;4194;43.408;24.626;2023-01-10T08:55:44;41.57;;;23.57;;
8312;SDS011;4194;43.408;24.626;2023-01-10T08:58:10;46.87;;;25.07;;
8312;SDS011;4194;43.408;24.626;2023-01-10T09:00:35;45.53;;;25.80;;
8312;SDS011;4194;43.408;24.626;2023-01-10T09:03:01;45.63;;;22.90;;
8312;SDS011;4194;43.408;24.626;2023-01-10T09:05:27;39.30;;;21.23;;
8312;SDS011;4194;43.408;24.626;2023-01-10T09:07:56;39.93;;;22.47;;
8312;SDS011;4194;43.408;24.626;2023-01-10T09:10:24;34.37;;;19.80;;
8312;SDS011;4194;43.408;24.626;2023-01-10T09:12:50;30.83;;;18.37;;
8312;SDS011;4194;43.408;24.626;2023-01-10T09:15:19;39.87;;;25.17;;
8312;SDS011;4194;43.408;24.626;2023-01-10T09:17:46;34.50;;;21.00;;
8312;SDS011;4194;43.408;24.626;2023-01-10T09:20:13;35.17;;;20.67;;
8312;SDS011;4194;43.408;24.626;2023-01-10T09:22:40;38.80;;;23.33;;
8312;SDS011;4194;43.408;24.626;2023-01-10T09:25:06;26.90;;;17.53;;
8312;SDS011;4194;43.408;24.626;2023-01-10T09:27:32;28.93;;;18.03;;
8312;SDS011;4194;43.408;24.626;2023-01-10T09:29:57;27.80;;;16.43;;
8312;SDS011;4194;43.408;24.626;2023-01-10T09:32:24;30.10;;;18.63;;
8312;SDS011;4194;43.408;24.626;2023-01-10T09:34:50;36.60;;;21.80;;
8312;SDS011;4194;43.408;24.626;2023-01-10T09:37:15;35.57;;;22.03;;
8312;SDS011;4194;43.408;24.626;2023-01-10T09:39:41;38.07;;;22.93;;
8312;SDS011;4194;43.408;24.626;2023-01-10T09:53:15;31.87;;;20.30;;
8312;SDS011;4194;43.408;24.626;2023-01-10T09:55:51;32.50;;;18.97;;
8312;SDS011;4194;43.408;24.626;2023-01-10T09:58:19;25.70;;;16.80;;
8312;SDS011;4194;43.408;24.626;2023-01-10T10:00:52;27.50;;;16.50;;
8312;SDS011;4194;43.408;24.626;2023-01-10T10:06:17;24.93;;;14.73;;
8312;SDS011;4194;43.408;24.626;2023-01-10T10:08:44;20.60;;;14.73;;
8312;SDS011;4194;43.408;24.626;2023-01-10T10:22:12;21.93;;;13.73;;
8312;SDS011;4194;43.408;24.626;2023-01-10T10:27:42;45.67;;;22.73;;
8312;SDS011;4194;43.408;24.626;2023-01-10T10:30:38;34.27;;;18.60;;
8312;SDS011;4194;43.408;24.626;2023-01-10T10:36:09;21.30;;;14.20;;
8312;SDS011;4194;43.408;24.626;2023-01-10T10:38:47;27.57;;;16.30;;
8312;SDS011;4194;43.408;24.626;2023-01-10T10:41:32;26.83;;;15.37;;
8312;SDS011;4194;43.408;24.626;2023-01-10T10:44:16;30.10;;;15.77;;
8312;SDS011;4194;43.408;24.626;2023-01-10T10:47:17;22.10;;;13.93;;
8312;SDS011;4194;43.408;24.626;2023-01-10T10:52:32;19.77;;;12.43;;
8312;SDS011;4194;43.408;24.626;2023-01-10T10:55:00;34.20;;;18.47;;
8312;SDS011;4194;43.408;24.626;2023-01-10T10:57:27;20.07;;;14.47;;
8312;SDS011;4194;43.408;24.626;2023-01-10T10:59:55;40.87;;;22.70;;
8312;SDS011;4194;43.408;24.626;2023-01-10T11:02:24;26.70;;;17.40;;
8312;SDS011;4194;43.408;24.626;2023-01-10T11:05:06;40.70;;;22.97;;
8312;SDS011;4194;43.408;24.626;2023-01-10T11:07:39;33.33;;;21.20;;
8312;SDS011;4194;43.408;24.626;2023-01-10T11:10:18;26.43;;;17.77;;
8312;SDS011;4194;43.408;24.626;2023-01-10T11:13:04;29.70;;;18.97;;
8312;SDS011;4194;43.408;24.626;2023-01-10T11:15:34;30.37;;;18.77;;
8312;SDS011;4194;43.408;24.626;2023-01-10T11:18:05;25.87;;;17.23;;
8312;SDS011;4194;43.408;24.626;2023-01-10T11:20:34;25.80;;;17.13;;
8312;SDS011;4194;43.408;24.626;2023-01-10T11:23:01;23.77;;;16.23;;
8312;SDS011;4194;43.408;24.626;2023-01-10T11:25:27;57.27;;;29.23;;
8312;SDS011;4194;43.408;24.626;2023-01-10T11:27:55;53.77;;;28.33;;
8312;SDS011;4194;43.408;24.626;2023-01-10T11:32:52;29.60;;;18.67;;
8312;SDS011;4194;43.408;24.626;2023-01-10T11:35:20;24.93;;;16.77;;
8312;SDS011;4194;43.408;24.626;2023-01-10T11:40:26;19.50;;;13.10;;
8312;SDS011;4194;43.408;24.626;2023-01-10T11:42:54;23.17;;;14.83;;
8312;SDS011;4194;43.408;24.626;2023-01-10T11:45:23;19.97;;;12.90;;
8312;SDS011;4194;43.408;24.626;2023-01-10T11:50:27;16.97;;;11.73;;
8312;SDS011;4194;43.408;24.626;2023-01-10T11:52:56;13.77;;;10.10;;
8312;SDS011;4194;43.408;24.626;2023-01-10T11:55:31;17.17;;;10.93;;
8312;SDS011;4194;43.408;24.626;2023-01-10T11:58:09;13.97;;;10.50;;
8312;SDS011;4194;43.408;24.626;2023-01-10T12:00:45;14.90;;;9.90;;
8312;SDS011;4194;43.408;24.626;2023-01-10T12:03:23;12.47;;;10.03;;
8312;SDS011;4194;43.408;24.626;2023-01-10T12:05:56;20.57;;;14.80;;
8312;SDS011;4194;43.408;24.626;2023-01-10T12:08:45;26.77;;;21.33;;
8312;SDS011;4194;43.408;24.626;2023-01-10T12:11:31;14.83;;;10.27;;
8312;SDS011;4194;43.408;24.626;2023-01-10T12:13:58;17.80;;;13.23;;
8312;SDS011;4194;43.408;24.626;2023-01-10T12:16:32;15.13;;;12.07;;
8312;SDS011;4194;43.408;24.626;2023-01-10T12:18:59;17.03;;;12.10;;
8312;SDS011;4194;43.408;24.626;2023-01-10T12:21:29;15.40;;;11.77;;
8312;SDS011;4194;43.408;24.626;2023-01-10T12:24:11;13.93;;;10.00;;
8312;SDS011;4194;43.408;24.626;2023-01-10T12:26:48;13.33;;;10.10;;
8312;SDS011;4194;43.408;24.626;2023-01-10T12:29:18;11.43;;;8.70;;
8312;SDS011;4194;43.408;24.626;2023-01-10T12:31:49;11.77;;;7.40;;
8312;SDS011;4194;43.408;24.626;2023-01-10T12:34:18;11.03;;;7.87;;
8312;SDS011;4194;43.408;24.626;2023-01-10T12:36:48;9.67;;;7.27;;
8312;SDS011;4194;43.408;24.626;2023-01-10T12:41:48;19.67;;;13.03;;
8312;SDS011;4194;43.408;24.626;2023-01-10T12:44:41;9.23;;;7.73;;
8312;SDS011;4194;43.408;24.626;2023-01-10T12:55:23;8.53;;;5.10;;
8312;SDS011;4194;43.408;24.626;2023-01-10T12:57:55;6.60;;;5.03;;
8312;SDS011;4194;43.408;24.626;2023-01-10T13:00:36;8.23;;;5.30;;
8312;SDS011;4194;43.408;24.626;2023-01-10T13:03:09;7.13;;;5.30;;
8312;SDS011;4194;43.408;24.626;2023-01-10T13:05:37;13.03;;;7.90;;
8312;SDS011;4194;43.408;24.626;2023-01-10T13:08:08;6.17;;;4.23;;
8312;SDS011;4194;43.408;24.626;2023-01-10T13:10:38;5.73;;;3.90;;
8312;SDS011;4194;43.408;24.626;2023-01-10T13:13:28;6.03;;;3.80;;
8312;SDS011;4194;43.408;24.626;2023-01-10T13:18:58;7.53;;;5.00;;
8312;SDS011;4194;43.408;24.626;2023-01-10T13:21:27;6.00;;;4.13;;
8312;SDS011;4194;43.408;24.626;2023-01-10T13:23:56;5.43;;;3.47;;
8312;SDS011;4194;43.408;24.626;2023-01-10T13:26:39;6.80;;;4.57;;
8312;SDS011;4194;43.408;24.626;2023-01-10T13:29:20;12.17;;;8.10;;
8312;SDS011;4194;43.408;24.626;2023-01-10T13:31:48;11.03;;;6.27;;
8312;SDS011;4194;43.408;24.626;2023-01-10T13:34:21;8.33;;;6.03;;
8312;SDS011;4194;43.408;24.626;2023-01-10T13:36:58;11.93;;;7.50;;
8312;SDS011;4194;43.408;24.626;2023-01-10T13:39:35;6.27;;;4.47;;
8312;SDS011;4194;43.408;24.626;2023-01-10T13:58:18;7.30;;;5.40;;
8312;SDS011;4194;43.408;24.626;2023-01-10T14:01:25;22.57;;;12.83;;
8312;SDS011;4194;43.408;24.626;2023-01-10T14:04:19;11.97;;;7.27;;
8312;SDS011;4194;43.408;24.626;2023-01-10T14:06:57;6.30;;;4.57;;
8312;SDS011;4194;43.408;24.626;2023-01-10T14:11:58;9.27;;;6.40;;
8312;SDS011;4194;43.408;24.626;2023-01-10T14:14:34;10.77;;;6.47;;
8312;SDS011;4194;43.408;24.626;2023-01-10T14:19:34;6.03;;;4.43;;
8312;SDS011;4194;43.408;24.626;2023-01-10T14:22:01;8.03;;;4.93;;
8312;SDS011;4194;43.408;24.626;2023-01-10T14:24:31;11.83;;;7.90;;
8312;SDS011;4194;43.408;24.626;2023-01-10T14:27:05;10.10;;;5.83;;
8312;SDS011;4194;43.408;24.626;2023-01-10T14:29:36;8.30;;;5.03;;
8312;SDS011;4194;43.408;24.626;2023-01-10T14:32:16;9.10;;;5.33;;
8312;SDS011;4194;43.408;24.626;2023-01-10T14:34:55;7.67;;;5.90;;
8312;SDS011;4194;43.408;24.626;2023-01-10T14:37:26;6.47;;;4.80;;
8312;SDS011;4194;43.408;24.626;2023-01-10T14:39:56;7.20;;;5.03;;
8312;SDS011;4194;43.408;24.626;2023-01-10T14:42:23;6.37;;;5.30;;
8312;SDS011;4194;43.408;24.626;2023-01-10T14:44:58;6.80;;;4.87;;
8312;SDS011;4194;43.408;24.626;2023-01-10T14:47:33;24.83;;;11.07;;
8312;SDS011;4194;43.408;24.626;2023-01-10T14:50:01;7.70;;;5.83;;
8312;SDS011;4194;43.408;24.626;2023-01-10T14:52:31;8.80;;;6.43;;
8312;SDS011;4194;43.408;24.626;2023-01-10T14:57:36;6.70;;;5.13;;
8312;SDS011;4194;43.408;24.626;2023-01-10T15:00:06;5.20;;;3.73;;
8312;SDS011;4194;43.408;24.626;2023-01-10T15:02:33;10.23;;;6.20;;
8312;SDS011;4194;43.408;24.626;2023-01-10T15:05:01;8.57;;;4.90;;
8312;SDS011;4194;43.408;24.626;2023-01-10T15:07:40;8.30;;;5.60;;
8312;SDS011;4194;43.408;24.626;2023-01-10T15:10:22;6.70;;;4.40;;
8312;SDS011;4194;43.408;24.626;2023-01-10T15:12:49;5.90;;;4.23;;
8312;SDS011;4194;43.408;24.626;2023-01-10T15:15:18;4.10;;;3.30;;
8312;SDS011;4194;43.408;24.626;2023-01-10T15:17:48;6.13;;;4.47;;
8312;SDS011;4194;43.408;24.626;2023-01-10T15:20:14;4.63;;;3.60;;
8312;SDS011;4194;43.408;24.626;2023-01-10T15:22:48;8.27;;;4.83;;
8312;SDS011;4194;43.408;24.626;2023-01-10T15:25:25;13.73;;;9.63;;
8312;SDS011;4194;43.408;24.626;2023-01-10T15:27:57;9.87;;;7.77;;
8312;SDS011;4194;43.408;24.626;2023-01-10T15:30:24;6.60;;;5.73;;
8312;SDS011;4194;43.408;24.626;2023-01-10T15:32:53;8.10;;;5.57;;
8312;SDS011;4194;43.408;24.626;2023-01-10T15:35:24;4.77;;;4.30;;
8312;SDS011;4194;43.408;24.626;2023-01-10T15:37:57;5.93;;;4.70;;
8312;SDS011;4194;43.408;24.626;2023-01-10T15:40:28;4.90;;;4.27;;
8312;SDS011;4194;43.408;24.626;2023-01-10T15:43:29;4.40;;;3.60;;
8312;SDS011;4194;43.408;24.626;2023-01-10T15:45:50;7.07;;;4.20;;
8312;SDS011;4194;43.408;24.626;2023-01-10T15:48:27;5.23;;;4.07;;
8312;SDS011;4194;43.408;24.626;2023-01-10T15:56:30;5.50;;;4.57;;
8312;SDS011;4194;43.408;24.626;2023-01-10T15:59:02;3.83;;;3.20;;
8312;SDS011;4194;43.408;24.626;2023-01-10T16:01:29;5.17;;;4.40;;
8312;SDS011;4194;43.408;24.626;2023-01-10T16:04:00;4.83;;;4.33;;
8312;SDS011;4194;43.408;24.626;2023-01-10T16:06:30;4.03;;;3.63;;
8312;SDS011;4194;43.408;24.626;2023-01-10T16:08:58;4.47;;;3.33;;
8312;SDS011;4194;43.408;24.626;2023-01-10T16:12:21;4.07;;;3.67;;
8312;SDS011;4194;43.408;24.626;2023-01-10T16:14:31;5.67;;;5.10;;
8312;SDS011;4194;43.408;24.626;2023-01-10T16:17:00;5.03;;;3.87;;
8312;SDS011;4194;43.408;24.626;2023-01-10T16:19:26;5.10;;;3.53;;
8312;SDS011;4194;43.408;24.626;2023-01-10T16:21:53;4.57;;;4.00;;
8312;SDS011;4194;43.408;24.626;2023-01-10T16:24:25;4.37;;;3.80;;
8312;SDS011;4194;43.408;24.626;2023-01-10T16:26:52;6.40;;;4.70;;
8312;SDS011;4194;43.408;24.626;2023-01-10T16:29:20;4.63;;;3.53;;
8312;SDS011;4194;43.408;24.626;2023-01-10T16:31:47;6.20;;;4.30;;
8312;SDS011;4194;43.408;24.626;2023-01-10T16:34:13;4.47;;;4.00;;
8312;SDS011;4194;43.408;24.626;2023-01-10T16:36:39;5.97;;;4.63;;
8312;SDS011;4194;43.408;24.626;2023-01-10T16:39:12;4.20;;;3.80;;
8312;SDS011;4194;43.408;24.626;2023-01-10T16:41:41;5.23;;;4.53;;
8312;SDS011;4194;43.408;24.626;2023-01-10T16:44:28;4.53;;;4.00;;
8312;SDS011;4194;43.408;24.626;2023-01-10T16:46:55;5.33;;;4.30;;
8312;SDS011;4194;43.408;24.626;2023-01-10T16:49:21;6.17;;;5.50;;
8312;SDS011;4194;43.408;24.626;2023-01-10T16:51:47;6.83;;;5.83;;
8312;SDS011;4194;43.408;24.626;2023-01-10T16:54:17;7.00;;;6.00;;
8312;SDS011;4194;43.408;24.626;2023-01-10T16:56:44;5.13;;;4.40;;
8312;SDS011;4194;43.408;24.626;2023-01-10T16:59:11;10.40;;;4.67;;
8312;SDS011;4194;43.408;24.626;2023-01-10T17:01:45;7.80;;;5.77;;
8312;SDS011;4194;43.408;24.626;2023-01-10T17:04:26;43.23;;;16.80;;